createdAt,value
2023-06-09T00:02:11.563Z,63.2
2023-06-09T00:04:59.223Z,62.9
2023-06-09T00:07:46.762Z,63.3
2023-06-09T00:10:34.591Z,63.5
2023-06-09T00:13:22.142Z,63.1
2023-06-09T00:16:09.812Z,63.8
2023-06-09T00:18:57.368Z,64.3
2023-06-09T00:21:44.875Z,65.3
2023-06-09T00:24:32.729Z,65.4
2023-06-09T00:27:20.448Z,65.3
2023-06-09T00:30:07.992Z,64.5
2023-06-09T00:32:55.809Z,64
2023-06-09T00:35:43.399Z,63.9
2023-06-09T00:38:30.980Z,64.1
2023-06-09T00:41:18.611Z,64.5
2023-06-09T00:44:06.329Z,65
2023-06-09T00:46:54.287Z,64.9
2023-06-09T00:49:41.907Z,65.1
2023-06-09T00:52:29.458Z,65.5
2023-06-09T00:55:19.541Z,65.8
2023-06-09T00:58:07.160Z,65.9
2023-06-09T01:00:54.913Z,65.7
2023-06-09T01:03:43.147Z,66.2
2023-06-09T01:06:30.863Z,66.1
2023-06-09T01:09:18.339Z,66.1
2023-06-09T01:12:06.022Z,66.2
2023-06-09T01:14:53.619Z,66.9
2023-06-09T01:17:41.463Z,67.6
2023-06-09T01:20:29.161Z,67.5
2023-06-09T01:23:16.810Z,67.6
2023-06-09T01:26:04.548Z,67.8
2023-06-09T01:28:52.128Z,68.8
2023-06-09T01:31:39.804Z,69.8
2023-06-09T01:34:27.542Z,69.3
2023-06-09T01:37:15.041Z,70
2023-06-09T01:40:02.621Z,70.7
2023-06-09T01:42:50.353Z,71.1
2023-06-09T01:45:38.406Z,71.2
2023-06-09T01:48:26.171Z,71.6
2023-06-09T01:51:13.915Z,71.7
2023-06-09T01:54:01.446Z,72.1
2023-06-09T01:56:48.986Z,73
2023-06-09T01:59:36.587Z,72.7
2023-06-09T02:02:24.563Z,72.2
2023-06-09T02:05:12.106Z,72.5
2023-06-09T02:08:00.016Z,72.8
2023-06-09T02:10:47.464Z,73
2023-06-09T02:13:35.018Z,73.1
2023-06-09T02:16:22.861Z,73.8
2023-06-09T02:19:10.561Z,74.6
2023-06-09T02:21:58.058Z,74.1
2023-06-09T02:24:46.054Z,74.6
2023-06-09T02:27:33.602Z,74.6
2023-06-09T02:30:21.291Z,74.5
2023-06-09T02:33:09.009Z,74.9
2023-06-09T02:35:56.508Z,74.6
2023-06-09T02:38:44.093Z,75
2023-06-09T02:41:31.679Z,75.1
2023-06-09T02:44:19.146Z,75.8
2023-06-09T02:47:06.730Z,75.6
2023-06-09T02:49:54.157Z,75.7
2023-06-09T02:52:41.844Z,75.5
2023-06-09T02:55:29.594Z,76
2023-06-09T02:58:17.456Z,75.6
2023-06-09T03:01:05.653Z,75
2023-06-09T03:03:53.507Z,74.8
2023-06-09T03:06:41.188Z,74.6
2023-06-09T03:09:28.772Z,74.9
2023-06-09T03:12:16.277Z,75.3
2023-06-09T03:15:03.915Z,75.8
2023-06-09T03:17:51.655Z,76.2
2023-06-09T03:20:39.301Z,76.7
2023-06-09T03:23:26.924Z,77.2
2023-06-09T03:26:14.430Z,77.6
2023-06-09T03:29:02.120Z,78.3
2023-06-09T03:31:49.929Z,78.9
2023-06-09T03:34:37.480Z,79.1
2023-06-09T03:37:24.987Z,79.7
2023-06-09T03:40:12.620Z,80
2023-06-09T03:43:00.048Z,80.1
2023-06-09T03:45:47.574Z,79.4
2023-06-09T03:48:35.253Z,79.1
2023-06-09T03:51:22.951Z,79.4
2023-06-09T03:54:10.541Z,79
2023-06-09T03:56:58.217Z,79.1
2023-06-09T03:59:45.848Z,79.2
2023-06-09T04:02:33.958Z,79.2
2023-06-09T04:05:21.742Z,80
2023-06-09T04:08:09.316Z,79.9
2023-06-09T04:10:56.911Z,80
2023-06-09T04:13:44.475Z,79.2
2023-06-09T04:16:32.951Z,79.6
2023-06-09T04:19:20.401Z,79.3
2023-06-09T04:22:08.157Z,79
2023-06-09T04:24:55.698Z,79.1
2023-06-09T04:27:43.221Z,79.2
2023-06-09T04:30:30.765Z,79.5
2023-06-09T04:33:18.834Z,81.1
2023-06-09T04:36:06.468Z,82
2023-06-09T04:38:54.076Z,81.7
2023-06-09T04:41:41.727Z,80.6
2023-06-09T04:44:29.259Z,79.5
2023-06-09T04:47:16.864Z,78.3
2023-06-09T04:50:04.586Z,77.3
2023-06-09T04:52:52.373Z,76.1
2023-06-09T04:55:40.058Z,75.1
2023-06-09T04:58:27.605Z,73.7
2023-06-09T05:01:15.415Z,72
2023-06-09T05:04:03.105Z,70.3
2023-06-09T05:06:50.701Z,69.1
2023-06-09T05:09:38.275Z,67.9
2023-06-09T05:12:25.990Z,67.2
2023-06-09T05:15:13.652Z,66.2
2023-06-09T05:18:01.392Z,65.9
2023-06-09T05:20:48.912Z,66.5
2023-06-09T05:23:36.634Z,67.3
2023-06-09T05:26:24.468Z,68.2
2023-06-09T05:29:12.113Z,70.1
2023-06-09T05:31:59.880Z,72.1
2023-06-09T05:34:47.452Z,73
2023-06-09T05:37:35.056Z,72.4
2023-06-09T05:40:22.667Z,70.2
2023-06-09T05:43:10.191Z,68.2
2023-06-09T05:45:58.232Z,66.8
2023-06-09T05:48:45.912Z,65.4
2023-06-09T05:51:33.489Z,63.9
2023-06-09T05:54:21.071Z,63.7
2023-06-09T05:57:10.905Z,61.8
2023-06-09T05:59:58.733Z,61.4
2023-06-09T06:02:49.490Z,61.4
2023-06-09T06:05:37.047Z,59.1
2023-06-09T06:08:24.623Z,59
2023-06-09T06:11:12.276Z,57.6
2023-06-09T06:13:59.854Z,58.5
2023-06-09T06:16:47.545Z,58.1
2023-06-09T06:19:35.368Z,57.9
2023-06-09T06:22:23.000Z,57.3
2023-06-09T06:25:10.733Z,55.9
2023-06-09T06:27:58.262Z,55.2
2023-06-09T06:30:45.892Z,53.3
2023-06-09T06:33:33.574Z,52.9
2023-06-09T06:36:21.404Z,49.6
2023-06-09T06:39:09.189Z,51.2
2023-06-09T06:41:56.766Z,50
2023-06-09T06:44:44.477Z,51
2023-06-09T06:47:32.190Z,50
2023-06-09T06:50:19.809Z,50.2
2023-06-09T06:53:07.388Z,49.8
2023-06-09T06:55:58.600Z,49
2023-06-09T06:58:46.081Z,48.8
2023-06-09T07:01:33.930Z,48.8
2023-06-09T07:04:21.752Z,48
2023-06-09T07:07:09.271Z,46.8
2023-06-09T07:09:57.027Z,46.4
2023-06-09T07:12:44.640Z,45.7
2023-06-09T07:15:32.261Z,44.6
2023-06-09T07:18:20.396Z,44.3
2023-06-09T07:21:08.133Z,44.1
2023-06-09T07:23:55.734Z,44
2023-06-09T07:26:43.521Z,44.4
2023-06-09T07:29:31.431Z,42.9
2023-06-09T07:32:19.345Z,43.5
2023-06-09T07:35:07.054Z,43.4
2023-06-09T07:37:54.686Z,44.2
2023-06-09T07:40:48.976Z,43.4
2023-06-09T07:43:36.507Z,42.3
2023-06-09T07:46:24.428Z,42.6
2023-06-09T07:49:12.218Z,42.3
2023-06-09T07:52:20.707Z,41.7
2023-06-09T07:55:16.177Z,39.3
2023-06-09T07:58:03.905Z,40.1
2023-06-09T08:00:52.462Z,39.7
2023-06-09T08:03:40.312Z,38.9
2023-06-09T08:06:27.948Z,38.3
2023-06-09T08:09:15.531Z,37.3
2023-06-09T08:12:03.524Z,36.6
2023-06-09T08:14:50.942Z,37.2
2023-06-09T08:17:38.867Z,36.3
2023-06-09T08:20:26.334Z,36.9
2023-06-09T08:23:13.939Z,36.8
2023-06-09T08:26:01.398Z,36.3
2023-06-09T08:28:48.943Z,35
2023-06-09T08:31:36.658Z,34.7
2023-06-09T08:34:24.380Z,34.2
2023-06-09T08:37:12.084Z,33.1
2023-06-09T08:39:59.565Z,33.2
2023-06-09T08:42:47.041Z,34.3
2023-06-09T08:45:37.577Z,33.5
2023-06-09T08:48:25.167Z,33.3
2023-06-09T08:51:12.770Z,32.9
2023-06-09T08:54:00.316Z,33.7
2023-06-09T08:56:47.796Z,33.8
2023-06-09T08:59:35.631Z,33.2
2023-06-09T09:02:23.178Z,32.4
2023-06-09T09:05:10.638Z,31.8
2023-06-09T09:07:58.195Z,30.6
2023-06-09T09:10:45.586Z,29.4
2023-06-09T09:13:33.197Z,30.1
2023-06-09T09:16:21.072Z,30.3
2023-06-09T09:19:08.477Z,30.8
2023-06-09T09:21:55.954Z,28.8
2023-06-09T09:24:43.596Z,28.4
2023-06-09T09:27:30.967Z,29
2023-06-09T09:30:18.510Z,29
2023-06-09T09:33:06.137Z,30
2023-06-09T09:35:53.527Z,30.8
2023-06-09T09:38:42.932Z,29.8
2023-06-09T09:41:30.514Z,30.5
2023-06-09T09:44:17.880Z,29
2023-06-09T09:47:05.860Z,29.6
2023-06-09T09:49:53.584Z,29.5
2023-06-09T09:52:40.962Z,29.7
2023-06-09T09:55:28.540Z,29.8
2023-06-09T09:58:16.238Z,30.4
2023-06-09T10:01:04.002Z,30.3
2023-06-09T10:03:51.672Z,30
2023-06-09T10:06:39.359Z,30
2023-06-09T10:09:26.950Z,29.5
2023-06-09T10:12:14.303Z,27.7
2023-06-09T10:15:01.938Z,27
2023-06-09T10:17:49.891Z,27.1
2023-06-09T10:20:37.297Z,26.7
2023-06-09T10:23:24.739Z,25.3
2023-06-09T10:26:12.287Z,26.2
2023-06-09T10:28:59.932Z,26.5
2023-06-09T10:31:47.803Z,26.3
2023-06-09T10:34:35.298Z,26.1
2023-06-09T10:37:22.826Z,26.7
2023-06-09T10:40:10.824Z,25.7
2023-06-09T10:42:58.268Z,24.6
2023-06-09T10:45:45.821Z,24.8
2023-06-09T10:48:33.362Z,23.5
2023-06-09T10:51:20.882Z,24.4
2023-06-09T10:54:08.366Z,24.5
2023-06-09T10:56:56.104Z,24.7
2023-06-09T10:59:43.510Z,23.5
2023-06-09T11:02:31.384Z,24.7
2023-06-09T11:05:19.234Z,24.1
2023-06-09T11:08:06.867Z,24.3
2023-06-09T11:10:54.383Z,24.8
2023-06-09T11:13:41.806Z,25
2023-06-09T11:16:29.393Z,24.4
2023-06-09T11:19:17.021Z,24
2023-06-09T11:22:04.544Z,24
2023-06-09T11:24:52.283Z,24.7
2023-06-09T11:27:39.810Z,23.2
2023-06-09T11:30:27.155Z,23.8
2023-06-09T11:33:14.912Z,24.5
2023-06-09T11:36:02.429Z,23.3
2023-06-09T11:38:50.067Z,22.9
2023-06-09T11:41:37.661Z,23.1
2023-06-09T11:44:25.037Z,23.4
2023-06-09T11:47:12.598Z,21.7
2023-06-09T11:49:59.970Z,20.7
2023-06-09T11:52:47.603Z,21.4
2023-06-09T11:55:35.174Z,24
2023-06-09T11:58:22.709Z,23.8
2023-06-09T12:01:10.136Z,25.3
2023-06-09T12:03:57.857Z,24.7
2023-06-09T12:06:45.389Z,25.7
2023-06-09T12:09:32.926Z,26.1
2023-06-09T12:12:20.438Z,27.1
2023-06-09T12:15:08.075Z,27.5
2023-06-09T12:17:56.218Z,29
2023-06-09T12:20:43.890Z,27.1
2023-06-09T12:23:33.539Z,26.3
2023-06-09T12:26:21.097Z,25.8
2023-06-09T12:29:08.606Z,26
2023-06-09T12:31:56.107Z,27.5
2023-06-09T12:34:43.633Z,26.9
2023-06-09T12:37:31.222Z,26.6
2023-06-09T12:40:19.215Z,24.2
2023-06-09T12:43:06.931Z,24.7
2023-06-09T12:45:56.535Z,25.7
2023-06-09T12:48:44.375Z,27.1
2023-06-09T12:51:31.980Z,29.3
2023-06-09T12:54:19.457Z,28.9
2023-06-09T12:57:06.779Z,27.3
2023-06-09T13:00:16.136Z,25.9
2023-06-09T13:03:07.863Z,24.3
2023-06-09T13:05:55.308Z,25.5
2023-06-09T13:08:42.789Z,26.2
2023-06-09T13:11:30.124Z,27.4
2023-06-09T13:14:17.636Z,26.8
2023-06-09T13:17:05.392Z,24.6
2023-06-09T13:19:52.941Z,24.1
2023-06-09T13:22:40.433Z,24.5
2023-06-09T13:25:27.899Z,23.2
2023-06-09T13:28:15.633Z,22.6
2023-06-09T13:31:05.086Z,22.5
2023-06-09T13:33:52.733Z,22.1
2023-06-09T13:36:40.442Z,21.8
2023-06-09T13:39:28.046Z,21.5
2023-06-09T13:42:18.494Z,21.8
2023-06-09T13:45:07.061Z,21
2023-06-09T13:48:01.959Z,20.1
2023-06-09T13:50:49.698Z,21.6
2023-06-09T13:53:37.275Z,23.7
2023-06-09T13:56:24.640Z,26.2
2023-06-09T13:59:12.019Z,27.8
2023-06-09T14:01:59.964Z,28.9
2023-06-09T14:04:48.095Z,29.8
2023-06-09T14:07:35.729Z,31.7
2023-06-09T14:10:23.413Z,31.1
2023-06-09T14:13:10.971Z,29.7
2023-06-09T14:15:59.368Z,28.5
2023-06-09T14:18:46.950Z,26.6
2023-06-09T14:21:34.462Z,26.1
2023-06-09T14:24:22.330Z,26.5
2023-06-09T14:27:09.881Z,27.2
2023-06-09T14:29:57.465Z,27.6
2023-06-09T14:32:45.003Z,28.4
2023-06-09T14:35:32.461Z,29.3
2023-06-09T14:38:20.010Z,30
2023-06-09T14:41:07.298Z,30.8
2023-06-09T14:43:54.774Z,31.1
2023-06-09T14:46:42.454Z,31.9
2023-06-09T14:49:30.017Z,30.6
2023-06-09T14:52:17.491Z,29.2
2023-06-09T14:55:05.124Z,25.3
2023-06-09T14:57:52.664Z,26
2023-06-09T15:00:40.252Z,25.9
2023-06-09T15:03:27.805Z,23.6
2023-06-09T15:06:15.322Z,23.8
2023-06-09T15:09:02.761Z,23.7
2023-06-09T15:11:50.280Z,25.7
2023-06-09T15:14:37.777Z,26.5
2023-06-09T15:17:25.592Z,25.1
2023-06-09T15:20:13.125Z,24.2
2023-06-09T15:23:00.501Z,22.5
2023-06-09T15:25:50.524Z,22.4
2023-06-09T15:28:38.261Z,22.4
2023-06-09T15:31:25.927Z,23
2023-06-09T15:34:13.539Z,24.3
2023-06-09T15:37:01.108Z,25.6
2023-06-09T15:39:48.573Z,27.5
2023-06-09T15:42:36.078Z,27.9
2023-06-09T15:45:23.524Z,28.1
2023-06-09T15:48:11.394Z,27.3
2023-06-09T15:50:59.087Z,28
2023-06-09T15:53:46.529Z,28.4
2023-06-09T15:56:33.975Z,27.9
2023-06-09T15:59:21.427Z,26.9
2023-06-09T16:02:09.055Z,25.3
2023-06-09T16:04:56.470Z,25.4
2023-06-09T16:07:44.075Z,24.1
2023-06-09T16:10:31.735Z,25.5
2023-06-09T16:13:19.284Z,25
2023-06-09T16:16:06.810Z,24.7
2023-06-09T16:18:54.268Z,25.2
2023-06-09T16:21:41.692Z,26.2
2023-06-09T16:24:29.554Z,26.1
2023-06-09T16:27:17.099Z,25.4
2023-06-09T16:30:04.706Z,25.6
2023-06-09T16:32:52.334Z,24.7
2023-06-09T16:35:39.795Z,24.1
2023-06-09T16:38:27.566Z,24.2
2023-06-09T16:41:15.111Z,25.3
2023-06-09T16:44:02.744Z,27.4
2023-06-09T16:46:50.680Z,28.1
2023-06-09T16:49:38.329Z,27.5
2023-06-09T16:52:25.785Z,27.9
2023-06-09T16:55:13.291Z,27.8
2023-06-09T16:58:00.965Z,27.1
2023-06-09T17:00:48.547Z,26.6
2023-06-09T17:03:36.435Z,26.4
2023-06-09T17:06:23.866Z,25.7
2023-06-09T17:09:11.447Z,25.3
2023-06-09T17:11:58.873Z,25
2023-06-09T17:14:48.981Z,25.7
2023-06-09T17:17:36.556Z,25.8
2023-06-09T17:20:24.264Z,25.5
2023-06-09T17:23:11.797Z,25.7
2023-06-09T17:25:59.275Z,26
2023-06-09T17:28:46.610Z,26.4
2023-06-09T17:31:34.391Z,26.6
2023-06-09T17:34:22.008Z,26.7
2023-06-09T17:37:09.537Z,27
2023-06-09T17:39:57.176Z,27.1
2023-06-09T17:42:44.641Z,26.9
2023-06-09T17:45:32.102Z,27.3
2023-06-09T17:48:19.731Z,27.2
2023-06-09T17:51:07.137Z,26.8
2023-06-09T17:53:54.813Z,26.7
2023-06-09T17:56:42.339Z,26.4
2023-06-09T17:59:29.782Z,27.2
2023-06-09T18:02:17.499Z,28.3
2023-06-09T18:05:05.283Z,29.5
2023-06-09T18:07:52.904Z,30.1
2023-06-09T18:10:40.431Z,30.7
2023-06-09T18:13:27.976Z,31.4
2023-06-09T18:16:15.718Z,32.7
2023-06-09T18:19:03.219Z,33.9
2023-06-09T18:21:51.029Z,34.6
2023-06-09T18:24:38.772Z,35.4
2023-06-09T18:27:26.282Z,36
2023-06-09T18:30:13.734Z,36.2
2023-06-09T18:33:01.429Z,36.3
2023-06-09T18:35:49.115Z,36.3
2023-06-09T18:38:36.694Z,36.5
2023-06-09T18:41:24.320Z,37.3
2023-06-09T18:44:11.909Z,37.6
2023-06-09T18:46:59.651Z,37.7
2023-06-09T18:49:47.164Z,37.7
2023-06-09T18:52:34.722Z,38.2
2023-06-09T18:55:22.226Z,38.6
2023-06-09T18:58:09.733Z,38.6
2023-06-09T19:00:57.477Z,38.7
2023-06-09T19:03:45.267Z,39
2023-06-09T19:06:32.936Z,39.3
2023-06-09T19:09:20.474Z,39.4
2023-06-09T19:12:08.057Z,39.7
2023-06-09T19:14:55.766Z,39.6
2023-06-09T19:17:43.775Z,40
2023-06-09T19:20:31.558Z,40.4
2023-06-09T19:23:19.477Z,40.1
2023-06-09T19:26:07.106Z,40.5
2023-06-09T19:28:54.956Z,40.5
2023-06-09T19:31:42.621Z,40.9
2023-06-09T19:34:30.404Z,40.8
2023-06-09T19:37:17.941Z,40.9
2023-06-09T19:40:05.457Z,40.7
2023-06-09T19:42:52.840Z,41.1
2023-06-09T19:45:40.431Z,41.1
2023-06-09T19:48:27.883Z,41.2
2023-06-09T19:51:15.412Z,41.6
2023-06-09T19:54:02.758Z,41.8
2023-06-09T19:56:50.313Z,42.1
2023-06-09T19:59:37.845Z,42.2
2023-06-09T20:02:25.926Z,42.6
2023-06-09T20:05:13.310Z,42.7
2023-06-09T20:08:00.891Z,42.7
2023-06-09T20:10:48.465Z,43.3
2023-06-09T20:13:35.988Z,43.7
2023-06-09T20:16:23.601Z,44
2023-06-09T20:19:11.320Z,44.7
2023-06-09T20:21:58.682Z,44.8
2023-06-09T20:24:46.399Z,45.9
2023-06-09T20:27:33.986Z,46
2023-06-09T20:30:21.395Z,46.3
2023-06-09T20:33:09.180Z,46.8
2023-06-09T20:35:56.841Z,47.2
2023-06-09T20:38:44.405Z,47.1
2023-06-09T20:41:31.980Z,47
2023-06-09T20:44:19.403Z,47.2
2023-06-09T20:47:06.980Z,47
2023-06-09T20:49:54.514Z,46.6
2023-06-09T20:52:42.169Z,46.9
2023-06-09T20:55:29.635Z,46.9
2023-06-09T20:58:17.048Z,46.7
2023-06-09T21:01:04.489Z,46.9
2023-06-09T21:03:52.642Z,46.7
2023-06-09T21:06:40.777Z,47.1
2023-06-09T21:09:28.304Z,47.3
2023-06-09T21:12:15.649Z,47.1
2023-06-09T21:15:03.177Z,47.5
2023-06-09T21:17:50.761Z,47.5
2023-06-09T21:20:38.396Z,48
2023-06-09T21:23:25.868Z,48.1
2023-06-09T21:26:13.467Z,48.9
2023-06-09T21:29:00.937Z,48.6
2023-06-09T21:31:48.649Z,48.7
2023-06-09T21:34:36.333Z,49.1
2023-06-09T21:37:23.810Z,49.3
2023-06-09T21:40:11.288Z,49.7
2023-06-09T21:42:58.877Z,49.6
2023-06-09T21:45:46.501Z,49.8
2023-06-09T21:48:34.072Z,49.9
2023-06-09T21:51:21.499Z,50
2023-06-09T21:54:09.128Z,49.8
2023-06-09T21:56:56.398Z,50.1
2023-06-09T21:59:43.962Z,50.5
2023-06-09T22:02:31.739Z,50.5
2023-06-09T22:05:19.289Z,50.5
2023-06-09T22:08:06.869Z,51.2
2023-06-09T22:10:54.291Z,51.1
2023-06-09T22:13:41.633Z,51.2
2023-06-09T22:16:29.295Z,51.7
2023-06-09T22:19:16.863Z,51.5
2023-06-09T22:22:04.387Z,51.8
2023-06-09T22:24:51.930Z,51.8
2023-06-09T22:27:39.312Z,51.7
2023-06-09T22:30:26.644Z,52
2023-06-09T22:33:14.127Z,52
2023-06-09T22:36:01.578Z,52.1
2023-06-09T22:38:48.950Z,52.5
2023-06-09T22:41:36.369Z,52.6
2023-06-09T22:44:23.933Z,52.7
2023-06-09T22:47:11.526Z,53.4
2023-06-09T22:49:59.033Z,53.2
2023-06-09T22:52:46.837Z,53.5
2023-06-09T22:55:34.673Z,53.3
2023-06-09T22:58:22.097Z,53.6
2023-06-09T23:01:09.436Z,53.4
2023-06-09T23:03:56.929Z,53.4
2023-06-09T23:06:44.615Z,54
2023-06-09T23:09:32.106Z,54.2
2023-06-09T23:12:19.488Z,54.6
2023-06-09T23:15:08.098Z,54.5
2023-06-09T23:17:55.850Z,54.4
2023-06-09T23:20:43.633Z,54.5
2023-06-09T23:23:31.428Z,55
2023-06-09T23:26:18.974Z,54.8
2023-06-09T23:29:06.593Z,55.1
2023-06-09T23:31:54.260Z,55.3
2023-06-09T23:34:41.981Z,55.8
2023-06-09T23:37:29.617Z,55.8
2023-06-09T23:40:17.194Z,56
2023-06-09T23:43:04.691Z,56.1
2023-06-09T23:45:52.280Z,56.5
2023-06-09T23:48:40.060Z,56.1
2023-06-09T23:51:27.480Z,56.1
2023-06-09T23:54:14.924Z,56.5
2023-06-09T23:57:02.343Z,56.2
2023-06-09T23:59:49.816Z,56.6
